Station: Flinders Island Airport  

  Atmospheric Gas Attenuation - ITU Rec 676-11   ----------------- dB/100km -----------------
Date Time Temp RH % AH g/m3 Dew Point Wind Direction Speed kph Gust kph Barometer mB Rainfall Since 9am 24GHz 47GHz 76GHz 122GHz 134GHz 241GHz
08/05 12:30 15.8 64 8.61 9 37 46 1015.4 0 19.5 25.4 38.9 102.2 96.2 331.0
08/05 12:20 15.7 61 8.16 8.2 41 44 1015.5 0 18.6 24.7 37.2 97.6 90.6 311.3
08/05 12:10 15.6 61 8.11 8.1 37 41 1015.7 0 18.5 24.7 37.1 97.3 90.1 309.6
08/05 12:00 15.9 64 8.67 9.1 39 50 1015.4 0 19.6 25.5 39.1 102.7 96.9 333.3
08/05 11:50 15.5 65 8.59 9 41 46 1015.3 0 19.5 25.5 39.0 102.3 96.3 331.4
08/05 11:40 15.6 62 8.25 8.4 44 50 1015.4 0 18.8 24.9 37.6 98.7 91.8 315.7
08/05 11:30 15.4 61 8.01 7.9 39 50 1015.5 0 18.3 24.6 36.8 96.5 89.0 305.8
08/05 11:20 15.5 63 8.33 8.5 41 46 1015.3 0 18.9 25.1 38.0 99.6 93.0 319.7
08/05 11:10 15.6 64 8.51 8.8 39 44 1015 0 19.3 25.3 38.6 101.3 95.1 327.3
08/05 11:00 15.5 62 8.2 8.3 41 52 1014.9 0 18.7 24.8 37.5 98.2 91.3 313.8
08/05 10:50 15.6 62 8.25 8.4 43 48 1014.9 0 18.8 24.9 37.6 98.6 91.8 315.6
08/05 10:40 15.6 66 8.78 9.3 39 46 1015 0 19.9 25.7 39.7 104.2 98.6 339.5
08/05 10:30 15.3 62 8.1 8.1 39 52 1014.5 0 18.5 24.7 37.2 97.4 90.2 310.0
08/05 10:20 15.2 63 8.18 8.2 41 48 1014.2 0 18.6 24.9 37.5 98.3 91.3 313.9
08/05 10:10 15.3 64 8.36 8.5 35 41 1014.2 0 19.0 25.1 38.2 100.1 93.5 321.5
08/05 10:00 15.1 65 8.39 8.6 43 54 1014 0 19.1 25.2 38.4 100.6 94.1 323.7
08/05 09:50 14.9 66 8.41 8.6 41 48 1013.9 0 19.1 25.3 38.5 101.1 94.6 325.3
08/05 09:40 14.7 68 8.56 8.9 50 54 1013.7 0 19.5 25.6 39.2 102.9 96.8 332.9
08/05 09:30 15.1 67 8.64 9 44 54 1013.6 0 19.6 25.6 39.3 103.2 97.3 334.9
08/05 09:20 14.8 66 8.36 8.5 39 43 1013.6 0 19.0 25.2 38.4 100.6 94.1 323.4
08/05 09:10 14.7 67 8.44 8.6 43 52 1013.6 0 19.2 25.4 38.7 101.6 95.2 327.5
08/05 09:00 14.4 70 8.65 9 46 56 1013.3 0 19.7 25.8 39.7 104.2 98.3 338.2
08/05 08:50 14.1 67 8.13 8.1 39 44 1013.1 1 18.6 25.1 37.8 99.1 91.9 315.7
08/05 08:40 14.5 65 8.08 8 46 52 1012.8 1 18.4 24.8 37.4 98.0 90.7 311.8
08/05 08:30 14 69 8.32 8.4 46 56 1012.6 1 19.0 25.4 38.6 101.1 94.4 324.6
08/05 08:20 14 68 8.2 8.2 43 50 1012.6 1 18.7 25.2 38.1 99.9 92.9 319.2
08/05 08:10 14 69 8.32 8.4 44 54 1012.4 1 19.0 25.4 38.5 101.1 94.4 324.6
08/05 08:00 14.2 69 8.43 8.6 46 56 1012.3 1 19.2 25.5 38.9 102.0 95.6 328.7
08/05 07:50 13.9 69 8.27 8.3 46 52 1012.3 1 18.9 25.3 38.4 100.7 93.9 322.7
08/05 07:40 13.9 66 7.91 7.7 50 57 1011.6 1 18.1 24.7 36.9 96.9 89.2 306.2
08/05 07:30 13.7 70 8.29 8.3 48 59 1011.1 1 18.9 25.3 38.5 101.1 94.3 324.1
08/05 07:20 13.8 71 8.46 8.6 46 52 1011 1 19.3 25.6 39.1 102.7 96.4 331.4
08/05 07:10 13.6 70 8.24 8.2 44 54 1010.9 1 18.8 25.3 38.4 100.6 93.7 322.2
08/05 07:00 13.8 70 8.34 8.4 50 59 1010.7 1 19.0 25.4 38.6 101.4 94.8 325.8
08/05 06:50 13.9 69 8.27 8.3 46 52 1010.7 1 18.9 25.2 38.3 100.5 93.7 322.2
08/05 06:40 14 68 8.2 8.2 48 54 1010.6 1 18.7 25.1 38.0 99.7 92.7 318.6
08/05 06:30 13.8 70 8.34 8.4 54 67 1010.4 1 19.0 25.4 38.6 101.4 94.8 325.8
08/05 06:20 13.8 70 8.34 8.4 57 63 1010.3 1 19.0 25.4 38.6 101.4 94.7 325.7
08/05 06:10 13.9 69 8.27 8.3 59 67 1010.2 1 18.9 25.2 38.3 100.5 93.7 322.1
08/05 06:00 14.1 72 8.74 9.1 54 63 1009.9 1 19.9 25.9 40.1 105.2 99.6 342.7
08/05 05:50 14 73 8.81 9.2 52 59 1009.9 1 20.0 26.0 40.4 106.1 100.6 346.4
08/05 05:40 14.1 72 8.74 9.1 50 57 1009.6 1 19.9 25.9 40.0 105.2 99.6 342.7
08/05 05:30 14.2 70 8.55 8.8 56 70 1009.4 1 19.5 25.6 39.2 103.0 96.9 333.4
08/05 05:20 14.1 72 8.74 9.1 57 65 1009.4 1 19.9 25.9 40.0 105.1 99.5 342.6
08/05 05:10 14.2 74 9.04 9.6 46 56 1009.5 1 20.5 26.4 41.2 108.2 103.4 356.1
08/05 05:00 14.1 74 8.98 9.5 52 67 1009.3 1 20.4 26.3 41.0 107.7 102.7 353.7
08/05 04:50 14.1 76 9.22 9.9 46 52 1009.4 1 20.9 26.7 42.0 110.3 105.9 364.9
08/05 04:40 14.2 74 9.04 9.6 54 57 1009.2 1 20.5 26.3 41.2 108.2 103.4 356.0
08/05 04:30 14.3 76 9.34 10.1 56 74 1009.2 1 21.2 26.8 42.4 111.3 107.3 369.6
08/05 04:20 14.3 74 9.09 9.7 52 59 1009.1 1 20.6 26.4 41.3 108.6 103.9 357.8
08/05 04:10 14.3 75 9.21 9.9 63 72 1008.8 1 20.9 26.6 41.8 109.9 105.5 363.4
08/05 04:00 14.3 79 9.71 10.7 56 70 1008.8 1 21.9 27.4 43.9 115.3 112.2 387.0
08/05 03:50 14.4 74 9.15 9.8 63 70 1008.8 1 20.7 26.4 41.5 109.1 104.5 360.1
08/05 03:40 14.4 76 9.39 10.2 52 61 1008.8 1 21.3 26.8 42.5 111.7 107.7 371.3
08/05 03:30 14.4 75 9.27 10 57 70 1008.8 1 21.0 26.6 42.0 110.4 106.1 365.7
08/05 03:20 14.3 76 9.34 10.1 56 59 1008.8 1 21.2 26.8 42.3 111.3 107.2 369.5
08/05 03:10 14.5 76 9.45 10.3 57 69 1008.9 1 21.4 26.9 42.7 112.2 108.4 373.7
08/05 03:00 14.4 75 9.27 10 59 70 1008.9 1 21.0 26.6 42.0 110.4 106.1 365.7
08/05 02:50 14.5 76 9.45 10.3 63 70 1008.8 1 21.4 26.9 42.7 112.2 108.4 373.7
08/05 02:40 14.5 76 9.45 10.3 56 67 1008.7 1 21.4 26.9 42.7 112.2 108.4 373.6
08/05 02:30 14.5 78 9.7 10.7 59 74 1008.5 1 21.9 27.3 43.7 114.9 111.8 385.4
08/05 02:20 14.5 79 9.83 10.9 56 63 1008.4 1 22.2 27.5 44.2 116.3 113.5 391.5
08/05 02:10 14.5 77 9.58 10.5 65 74 1008.3 1 21.7 27.1 43.2 113.6 110.1 379.7
08/05 02:00 14.7 77 9.69 10.7 56 72 1008.3 1 21.9 27.2 43.5 114.5 111.3 383.9
08/05 01:50 14.7 77 9.69 10.7 61 72 1008.5 1 21.9 27.2 43.5 114.5 111.3 383.9
08/05 01:40 14.5 78 9.7 10.7 67 76 1008.6 1 21.9 27.3 43.7 114.9 111.8 385.4
08/05 01:30 14.7 79 9.95 11.1 59 72 1008.7 1 22.4 27.7 44.6 117.4 114.9 396.3
08/05 01:20 14.7 78 9.82 10.9 54 72 1008.9 1 22.2 27.5 44.1 116.0 113.1 390.2
08/05 01:10 14.6 78 9.76 10.8 63 74 1008.9 1 22.0 27.4 43.9 115.5 112.5 387.9
08/05 01:00 14.7 79 9.95 11.1 59 74 1008.9 1 22.4 27.7 44.6 117.4 114.9 396.4
08/05 00:50 14.5 80 9.95 11.1 54 72 1009.2 1 22.5 27.8 44.8 117.8 115.2 397.5
08/05 00:40 14.5 80 9.95 11.1 52 59 1009.4 1 22.5 27.8 44.8 117.8 115.3 397.6
08/05 00:30 14.3 78 9.58 10.5 52 67 1009.4 1 21.7 27.2 43.3 114.0 110.5 381.0
08/05 00:20 14.3 78 9.58 10.5 46 56 1009.7 1 21.7 27.2 43.4 114.0 110.5 381.1
08/05 00:10 14.2 79 9.65 10.6 52 57 1009.9 1 21.8 27.4 43.7 115.0 111.6 384.9
08/05 00:00 14.3 76 9.34 10.1 46 63 1009.9 1 21.2 26.8 42.4 111.4 107.3 369.8
07/05 23:50 14 79 9.53 10.4 46 56 1010.1 1 21.6 27.2 43.3 113.9 110.3 380.3
07/05 23:40 13.9 79 9.47 10.3 52 59 1010.1 1 21.5 27.2 43.1 113.4 109.7 377.9
07/05 23:30 13.9 81 9.71 10.7 48 63 1010.2 1 22.0 27.6 44.1 116.1 112.9 389.4
07/05 23:20 13.3 88 10.17 11.4 44 50 1010.4 1 23.0 28.6 46.4 122.2 120.2 414.9
07/05 23:10 13.3 84 9.71 10.7 56 61 1010.6 1 22.0 27.8 44.5 117.0 113.9 392.5
07/05 23:00 13.4 84 9.77 10.8 44 63 1010.6 1 22.1 27.9 44.7 117.6 114.5 394.9
07/05 22:50 13 87 9.87 10.9 39 46 1010.8 1 22.4 28.2 45.4 119.3 116.6 401.9
07/05 22:40 12.6 89 9.85 10.8 37 48 1011.1 1 22.3 28.3 45.5 119.7 116.9 403.1
07/05 22:30 12.9 84 9.47 10.3 35 50 1011.3 0.8 21.5 27.5 43.8 115.0 111.2 383.2
07/05 22:20 12.7 84 9.35 10.1 39 48 1011.6 0.8 21.3 27.4 43.4 114.0 109.9 378.5
07/05 22:10 12.5 84 9.24 9.9 41 48 1011.8 0.8 21.0 27.3 43.0 113.1 108.6 374.2
07/05 22:00 12.6 81 8.96 9.4 37 54 1011.9 0.8 20.4 26.8 41.8 109.9 104.7 360.4
07/05 21:50 12.3 83 9.01 9.5 32 35 1012.3 0.8 20.5 27.0 42.2 110.9 105.8 364.2
07/05 21:40 11.8 88 9.26 9.9 37 46 1012.6 0.8 21.1 27.6 43.5 114.4 110.0 378.8
07/05 21:30 12 84 8.95 9.4 39 52 1012.5 0.8 20.4 27.0 42.1 110.7 105.4 362.8
07/05 21:20 11.9 84 8.9 9.3 46 52 1012.9 0.8 20.3 26.9 42.0 110.3 104.9 361.0
07/05 21:10 11.8 86 9.05 9.5 50 56 1013 0.8 20.7 27.2 42.7 112.1 107.1 368.7
07/05 21:00 11.7 81 8.47 8.6 44 61 1013 0.8 19.4 26.3 40.3 105.8 99.3 341.5
07/05 20:50 11.1 87 8.76 9 39 43 1013.3 0.8 20.1 27.0 41.9 109.9 104.1 358.1
07/05 20:40 11.5 83 8.57 8.7 37 43 1013.3 0.8 19.6 26.5 40.8 107.2 101.0 347.2
07/05 20:30 11.3 83 8.47 8.5 41 52 1013.3 0.8 19.4 26.4 40.5 106.4 99.9 343.3
07/05 20:20 11 84 8.41 8.4 52 56 1013.6 0.6 19.3 26.4 40.5 106.2 99.5 341.8
07/05 20:10 11.1 80 8.06 7.8 35 41 1013.6 0.4 18.6 25.8 39.0 102.2 94.6 324.8
07/05 20:00 11.3 80 8.16 8 33 44 1013.6 0.4 18.8 25.9 39.3 103.0 95.7 328.7

Last Refresh: 08-May-2026 12:07:16

Bureau of Meteorology